createdAt,value
2018-01-11T00:00:14.737Z,0
2018-01-11T00:01:20.177Z,0
2018-01-11T00:02:25.392Z,0
2018-01-11T00:03:31.289Z,0
2018-01-11T00:04:36.475Z,0
2018-01-11T00:05:41.650Z,0
2018-01-11T00:06:47.093Z,0
2018-01-11T00:07:52.568Z,0
2018-01-11T00:08:57.463Z,0
2018-01-11T00:10:02.615Z,0
2018-01-11T00:11:06.937Z,0
2018-01-11T00:12:12.552Z,0
2018-01-11T00:13:18.353Z,0
2018-01-11T00:14:23.266Z,0
2018-01-11T00:15:29.235Z,0
2018-01-11T00:16:34.157Z,0
2018-01-11T00:17:39.340Z,0
2018-01-11T00:18:45.170Z,0
2018-01-11T00:19:50.636Z,0
2018-01-11T00:20:56.126Z,0
2018-01-11T00:22:01.639Z,0
2018-01-11T00:23:07.110Z,0
2018-01-11T00:24:11.718Z,0
2018-01-11T00:25:17.445Z,0
2018-01-11T00:26:22.901Z,0
2018-01-11T00:27:28.914Z,0
2018-01-11T00:28:33.258Z,0
2018-01-11T00:29:38.722Z,0
2018-01-11T00:30:44.576Z,0
2018-01-11T00:31:49.756Z,0
2018-01-11T00:32:55.207Z,0
2018-01-11T00:34:00.633Z,0
2018-01-11T00:35:05.830Z,0
2018-01-11T00:36:11.354Z,0
2018-01-11T00:37:17.066Z,0
2018-01-11T00:38:22.555Z,0
2018-01-11T00:39:27.613Z,0
2018-01-11T00:40:31.928Z,0
2018-01-11T00:41:36.830Z,0
2018-01-11T00:42:42.413Z,0
2018-01-11T00:43:47.335Z,0
2018-01-11T00:44:52.515Z,0
2018-01-11T00:45:57.968Z,0
2018-01-11T00:47:03.153Z,0
2018-01-11T00:48:08.047Z,0
2018-01-11T00:49:13.877Z,0
2018-01-11T00:50:19.348Z,0
2018-01-11T00:52:45.080Z,0
2018-01-11T00:53:50.529Z,0
2018-01-11T00:54:56.271Z,0
2018-01-11T00:56:01.769Z,0
2018-01-11T00:57:06.701Z,0
2018-01-11T00:58:12.266Z,0
2018-01-11T00:59:17.734Z,0
2018-01-11T01:00:23.243Z,0
2018-01-11T01:01:43.810Z,0
2018-01-11T01:02:49.279Z,0
2018-01-11T01:03:54.989Z,0
2018-01-11T01:05:00.448Z,0
2018-01-11T01:06:05.643Z,0
2018-01-11T01:07:11.108Z,0
2018-01-11T01:08:16.565Z,0
2018-01-11T01:09:22.025Z,0
2018-01-11T01:10:27.985Z,0
2018-01-11T01:11:33.161Z,0
2018-01-11T01:12:38.892Z,0
2018-01-11T01:13:44.374Z,0
2018-01-11T01:14:49.562Z,0
2018-01-11T01:15:55.493Z,0
2018-01-11T01:17:00.942Z,0
2018-01-11T01:18:05.565Z,0
2018-01-11T01:19:11.008Z,0
2018-01-11T01:20:16.178Z,0
2018-01-11T01:21:21.653Z,0
2018-01-11T01:22:27.451Z,0
2018-01-11T01:23:32.328Z,0
2018-01-11T01:24:37.526Z,0
2018-01-11T01:25:42.985Z,0
2018-01-11T01:26:48.450Z,0
2018-01-11T01:27:54.403Z,0
2018-01-11T01:28:59.873Z,0
2018-01-11T01:30:05.768Z,0
2018-01-11T01:31:11.650Z,0
2018-01-11T01:32:16.550Z,0
2018-01-11T01:33:21.740Z,0
2018-01-11T01:34:27.776Z,0
2018-01-11T01:35:33.246Z,0
2018-01-11T01:36:38.685Z,0
2018-01-11T01:37:44.156Z,0
2018-01-11T01:38:49.654Z,0
2018-01-11T01:39:55.573Z,0
2018-01-11T01:41:00.775Z,0
2018-01-11T01:42:06.247Z,0
2018-01-11T01:43:11.453Z,0
2018-01-11T01:44:16.912Z,0
2018-01-11T01:45:22.114Z,0
2018-01-11T01:46:28.307Z,0
2018-01-11T01:47:33.520Z,0
2018-01-11T01:48:39.248Z,0
2018-01-11T01:49:44.780Z,0
2018-01-11T01:50:50.257Z,0
2018-01-11T01:51:55.950Z,0
2018-01-11T01:53:01.418Z,0
2018-01-11T01:54:06.615Z,0
2018-01-11T01:55:12.420Z,0
2018-01-11T01:56:17.905Z,0
2018-01-11T01:57:23.128Z,0
2018-01-11T01:58:43.490Z,0
2018-01-11T01:59:48.654Z,0
2018-01-11T02:00:54.113Z,0
2018-01-11T02:01:59.558Z,0
2018-01-11T02:03:05.028Z,0
2018-01-11T02:04:10.466Z,0
2018-01-11T02:05:15.932Z,0
2018-01-11T02:06:21.400Z,0
2018-01-11T02:07:27.151Z,0
2018-01-11T02:08:32.646Z,0
2018-01-11T02:09:38.224Z,0
2018-01-11T02:10:43.694Z,0
2018-01-11T02:11:49.184Z,0
2018-01-11T02:12:54.928Z,0
2018-01-11T02:14:00.103Z,0
2018-01-11T02:15:05.339Z,0
2018-01-11T02:16:10.477Z,0
2018-01-11T02:17:15.951Z,0
2018-01-11T02:18:21.142Z,0
2018-01-11T02:19:26.780Z,0
2018-01-11T02:20:31.978Z,0
2018-01-11T02:21:37.768Z,0
2018-01-11T02:22:43.245Z,0
2018-01-11T02:23:48.698Z,0
2018-01-11T02:24:54.655Z,0
2018-01-11T02:26:00.140Z,0
2018-01-11T02:27:05.609Z,0
2018-01-11T02:28:11.405Z,0
2018-01-11T02:29:16.604Z,0
2018-01-11T02:30:22.074Z,0
2018-01-11T02:31:28.054Z,0
2018-01-11T02:32:33.510Z,0
2018-01-11T02:33:39.100Z,0
2018-01-11T02:34:44.586Z,0
2018-01-11T02:35:49.749Z,0
2018-01-11T02:36:55.478Z,0
2018-01-11T02:38:00.948Z,0
2018-01-11T02:39:06.420Z,0
2018-01-11T02:40:12.001Z,0
2018-01-11T02:41:17.465Z,0
2018-01-11T02:42:22.935Z,0
2018-01-11T02:43:43.370Z,0
2018-01-11T02:44:48.820Z,0
2018-01-11T02:45:54.328Z,0
2018-01-11T02:46:59.776Z,0
2018-01-11T02:48:04.959Z,0
2018-01-11T02:49:10.506Z,0
2018-01-11T02:50:15.677Z,0
2018-01-11T02:51:21.155Z,0
2018-01-11T02:52:26.892Z,0
2018-01-11T02:53:32.077Z,0
2018-01-11T02:54:37.013Z,0
2018-01-11T02:55:42.188Z,0
2018-01-11T02:56:47.366Z,0
2018-01-11T02:57:52.809Z,0
2018-01-11T02:58:58.276Z,0
2018-01-11T03:00:03.456Z,0
2018-01-11T03:01:08.996Z,0
2018-01-11T03:02:14.464Z,0
2018-01-11T03:03:19.657Z,0
2018-01-11T03:04:25.366Z,0
2018-01-11T03:05:30.288Z,0
2018-01-11T03:06:35.449Z,0
2018-01-11T03:07:40.630Z,0
2018-01-11T03:08:45.831Z,0
2018-01-11T03:09:51.550Z,0
2018-01-11T03:10:56.726Z,0
2018-01-11T03:12:02.248Z,0
2018-01-11T03:13:07.205Z,0
2018-01-11T03:14:12.398Z,0
2018-01-11T03:15:17.875Z,0
2018-01-11T03:16:23.702Z,0
2018-01-11T03:17:29.207Z,0
2018-01-11T03:18:35.161Z,0
2018-01-11T03:19:40.634Z,0
2018-01-11T03:20:45.814Z,0
2018-01-11T03:21:51.370Z,0
2018-01-11T03:22:56.546Z,0
2018-01-11T03:24:02.003Z,0
2018-01-11T03:25:07.411Z,0
2018-01-11T03:26:12.894Z,0
2018-01-11T03:27:18.081Z,0
2018-01-11T03:28:23.812Z,0
2018-01-11T03:29:29.282Z,0
2018-01-11T03:30:35.110Z,0
2018-01-11T03:31:40.327Z,0
2018-01-11T03:32:45.802Z,0
2018-01-11T03:33:51.676Z,0
2018-01-11T03:34:57.162Z,0
2018-01-11T03:36:02.650Z,0
2018-01-11T03:37:08.369Z,0
2018-01-11T03:38:13.858Z,0
2018-01-11T03:39:19.345Z,0
2018-01-11T03:40:24.790Z,0
2018-01-11T03:41:29.987Z,0
2018-01-11T03:42:35.872Z,0
2018-01-11T03:43:40.810Z,0
2018-01-11T03:44:46.288Z,0
2018-01-11T03:45:52.197Z,0
2018-01-11T03:46:57.372Z,0
2018-01-11T03:48:02.881Z,0
2018-01-11T03:49:08.662Z,0
2018-01-11T03:50:13.885Z,0
2018-01-11T03:51:19.360Z,0
2018-01-11T03:52:25.099Z,0
2018-01-11T03:53:30.541Z,0
2018-01-11T03:54:36.305Z,0
2018-01-11T03:55:41.764Z,0
2018-01-11T03:56:47.246Z,0
2018-01-11T03:57:53.042Z,0
2018-01-11T03:58:58.531Z,0
2018-01-11T04:00:03.445Z,0
2018-01-11T04:01:09.284Z,0
2018-01-11T04:02:14.730Z,0
2018-01-11T04:03:20.198Z,0
2018-01-11T04:04:40.662Z,0
2018-01-11T04:05:45.564Z,0
2018-01-11T04:06:51.538Z,0
2018-01-11T04:07:57.030Z,0
2018-01-11T04:09:02.532Z,0
2018-01-11T04:10:07.971Z,0
2018-01-11T04:11:13.446Z,0
2018-01-11T04:12:18.895Z,0
2018-01-11T04:13:24.648Z,0
2018-01-11T04:14:29.830Z,0
2018-01-11T04:15:34.997Z,0
2018-01-11T04:16:39.891Z,0
2018-01-11T04:17:45.076Z,0
2018-01-11T04:18:50.553Z,0
2018-01-11T04:19:56.012Z,0
2018-01-11T04:21:01.476Z,0
2018-01-11T04:22:06.925Z,0
2018-01-11T04:23:12.414Z,0
2018-01-11T04:24:17.870Z,0
2018-01-11T04:25:23.589Z,0
2018-01-11T04:26:28.765Z,0
2018-01-11T04:27:34.346Z,0
2018-01-11T04:28:39.810Z,0
2018-01-11T04:29:45.270Z,0
2018-01-11T04:30:50.963Z,0
2018-01-11T04:31:56.427Z,0
2018-01-11T04:33:01.035Z,0
2018-01-11T04:34:05.913Z,0
2018-01-11T04:35:11.398Z,0
2018-01-11T04:36:16.594Z,0
2018-01-11T04:37:22.178Z,0
2018-01-11T04:38:27.652Z,0
2018-01-11T04:39:33.218Z,0
2018-01-11T04:40:38.397Z,0
2018-01-11T04:41:43.877Z,0
2018-01-11T04:42:49.627Z,0
2018-01-11T04:43:55.104Z,0
2018-01-11T04:45:00.581Z,0
2018-01-11T04:46:06.294Z,0
2018-01-11T04:47:11.195Z,0
2018-01-11T04:48:16.381Z,0
2018-01-11T04:49:21.905Z,0
2018-01-11T04:50:27.349Z,0
2018-01-11T04:51:32.213Z,0
2018-01-11T04:52:37.695Z,0
2018-01-11T04:53:43.169Z,0
2018-01-11T04:54:49.092Z,0
2018-01-11T04:55:54.568Z,0
2018-01-11T04:57:00.062Z,0
2018-01-11T04:58:05.481Z,0
2018-01-11T04:59:10.393Z,0
2018-01-11T05:00:15.616Z,0
2018-01-11T05:01:21.350Z,0
2018-01-11T05:02:26.545Z,0
2018-01-11T05:03:31.713Z,0
2018-01-11T05:04:36.656Z,0
2018-01-11T05:05:42.123Z,0
2018-01-11T05:06:48.008Z,0
2018-01-11T05:07:53.190Z,0
2018-01-11T05:08:58.383Z,0
2018-01-11T05:10:03.669Z,0
2018-01-11T05:11:08.875Z,0
2018-01-11T05:12:14.348Z,0
2018-01-11T05:13:20.079Z,0
2018-01-11T05:14:25.261Z,0
2018-01-11T05:15:31.158Z,0
2018-01-11T05:16:36.317Z,0
2018-01-11T05:17:41.491Z,0
2018-01-11T05:18:46.944Z,0
2018-01-11T05:19:52.122Z,0
2018-01-11T05:20:57.601Z,0
2018-01-11T05:22:03.636Z,0
2018-01-11T05:23:08.819Z,0
2018-01-11T05:24:14.301Z,0
2018-01-11T05:25:20.028Z,0
2018-01-11T05:26:25.495Z,0
2018-01-11T05:27:31.262Z,0
2018-01-11T05:28:36.809Z,0
2018-01-11T05:29:42.301Z,0
2018-01-11T05:30:47.549Z,0
2018-01-11T05:31:52.746Z,0
2018-01-11T05:32:57.929Z,0
2018-01-11T05:34:03.356Z,0
2018-01-11T05:35:08.811Z,0
2018-01-11T05:36:14.286Z,0
2018-01-11T05:37:19.740Z,0
2018-01-11T05:38:25.205Z,0
2018-01-11T05:39:30.659Z,0
2018-01-11T05:40:35.541Z,0
2018-01-11T05:41:40.723Z,0
2018-01-11T05:42:46.178Z,0
2018-01-11T05:43:51.658Z,0
2018-01-11T05:44:56.844Z,0
2018-01-11T05:46:02.001Z,0
2018-01-11T05:47:07.182Z,0
2018-01-11T05:48:12.654Z,0
2018-01-11T05:49:17.548Z,0
2018-01-11T05:50:23.016Z,0
2018-01-11T05:51:28.973Z,0
2018-01-11T05:52:34.430Z,0
2018-01-11T05:53:39.921Z,0
2018-01-11T05:54:45.657Z,0
2018-01-11T05:55:51.162Z,0
2018-01-11T05:56:56.661Z,0
2018-01-11T05:58:02.111Z,0
2018-01-11T05:59:06.734Z,0
2018-01-11T06:00:11.618Z,0
2018-01-11T06:01:16.785Z,0
2018-01-11T06:02:22.265Z,0
2018-01-11T06:03:27.712Z,0
2018-01-11T06:04:32.613Z,0
2018-01-11T06:05:37.783Z,0
2018-01-11T06:06:43.307Z,0
2018-01-11T06:07:48.779Z,0
2018-01-11T06:08:53.947Z,0
2018-01-11T06:09:59.367Z,0
2018-01-11T06:11:04.845Z,0
2018-01-11T06:12:10.332Z,0
2018-01-11T06:13:16.027Z,0
2018-01-11T06:14:21.510Z,0
2018-01-11T06:15:26.931Z,0
2018-01-11T06:16:32.129Z,0
2018-01-11T06:17:37.310Z,0
2018-01-11T06:18:43.082Z,0
2018-01-11T06:19:47.713Z,0
2018-01-11T06:20:52.606Z,0
2018-01-11T06:21:58.332Z,0
2018-01-11T06:23:03.527Z,0
2018-01-11T06:24:08.761Z,0
2018-01-11T06:25:14.471Z,0
2018-01-11T06:26:19.973Z,0
2018-01-11T06:27:40.527Z,0
2018-01-11T06:28:45.729Z,0
2018-01-11T06:29:51.224Z,0
2018-01-11T06:30:56.943Z,0
2018-01-11T06:32:02.426Z,0
2018-01-11T06:33:07.622Z,0
2018-01-11T06:34:13.436Z,0
2018-01-11T06:35:19.246Z,0
2018-01-11T06:36:25.573Z,0
2018-01-11T06:37:30.650Z,0
2018-01-11T06:38:36.106Z,0
2018-01-11T06:39:41.603Z,0
2018-01-11T06:40:46.806Z,0
2018-01-11T06:41:51.428Z,0
2018-01-11T06:42:56.599Z,0
2018-01-11T06:44:02.088Z,0
2018-01-11T06:45:07.555Z,0
2018-01-11T06:46:13.292Z,0
2018-01-11T06:47:18.510Z,0
2018-01-11T06:49:44.176Z,0
2018-01-11T06:50:48.786Z,0
2018-01-11T06:51:54.482Z,0
2018-01-11T06:52:59.936Z,0
2018-01-11T06:54:05.398Z,0
2018-01-11T06:55:10.942Z,0
2018-01-11T06:56:16.413Z,0
2018-01-11T06:57:20.784Z,0
2018-01-11T06:58:26.769Z,0
2018-01-11T06:59:31.998Z,0
2018-01-11T07:00:37.418Z,0
2018-01-11T07:01:42.314Z,0
2018-01-11T07:02:47.802Z,0
2018-01-11T07:03:53.504Z,0
2018-01-11T07:04:59.002Z,0
2018-01-11T07:06:04.194Z,0
2018-01-11T07:07:09.633Z,0
2018-01-11T07:08:14.826Z,0
2018-01-11T07:09:20.018Z,0
2018-01-11T07:10:25.839Z,0
2018-01-11T07:11:30.517Z,0
2018-01-11T07:12:36.515Z,0
2018-01-11T07:13:41.980Z,0
2018-01-11T07:14:47.434Z,0
2018-01-11T07:15:53.140Z,0
2018-01-11T07:16:58.635Z,0
2018-01-11T07:18:04.123Z,0
2018-01-11T07:19:09.547Z,0
2018-01-11T07:20:15.039Z,0
2018-01-11T07:21:19.979Z,0
2018-01-11T07:22:25.277Z,0
2018-01-11T07:23:30.495Z,0
2018-01-11T07:24:36.192Z,0
2018-01-11T07:25:41.380Z,0
2018-01-11T07:26:46.852Z,0
2018-01-11T07:27:52.488Z,0
2018-01-11T07:28:57.966Z,0
2018-01-11T07:30:03.336Z,0
2018-01-11T07:31:08.528Z,0
2018-01-11T07:32:13.986Z,0
2018-01-11T07:33:19.195Z,0
2018-01-11T07:34:24.923Z,0
2018-01-11T07:35:29.553Z,0
2018-01-11T07:36:34.473Z,0
2018-01-11T07:37:39.673Z,0
2018-01-11T07:38:45.155Z,0
2018-01-11T07:39:50.725Z,0
2018-01-11T07:40:56.203Z,0
2018-01-11T07:42:01.394Z,0
2018-01-11T07:43:07.432Z,0
2018-01-11T07:44:12.649Z,0
2018-01-11T07:45:17.844Z,197
2018-01-11T07:46:23.555Z,197
2018-01-11T07:47:29.032Z,197
2018-01-11T07:48:34.572Z,181
2018-01-11T07:49:40.039Z,181
2018-01-11T07:50:45.520Z,212
2018-01-11T07:51:51.353Z,212
2018-01-11T07:52:56.834Z,197
2018-01-11T07:54:02.052Z,181
2018-01-11T07:55:06.970Z,181
2018-01-11T07:56:12.461Z,212
2018-01-11T07:57:17.635Z,181
2018-01-11T07:58:22.911Z,197
2018-01-11T07:59:28.376Z,197
2018-01-11T08:00:34.147Z,197
2018-01-11T08:01:39.650Z,197
2018-01-11T08:02:44.753Z,212
2018-01-11T08:03:50.285Z,212
2018-01-11T08:04:55.768Z,197
2018-01-11T08:06:01.461Z,212
2018-01-11T08:07:07.061Z,197
2018-01-11T08:08:12.690Z,197
2018-01-11T08:09:17.884Z,212
2018-01-11T08:10:23.607Z,212
2018-01-11T08:11:29.074Z,212
2018-01-11T08:12:34.139Z,227
2018-01-11T08:13:39.326Z,212
2018-01-11T08:14:44.816Z,212
2018-01-11T08:15:50.296Z,227
2018-01-11T08:16:55.765Z,212
2018-01-11T08:18:00.999Z,212
2018-01-11T08:19:06.243Z,212
2018-01-11T08:20:11.495Z,212
2018-01-11T08:21:16.997Z,212
2018-01-11T08:22:22.764Z,212
2018-01-11T08:23:27.693Z,227
2018-01-11T08:24:33.392Z,227
2018-01-11T08:25:38.519Z,227
2018-01-11T08:26:44.210Z,222
2018-01-11T08:27:49.695Z,242
2018-01-11T08:28:55.164Z,242
2018-01-11T08:30:00.415Z,222
2018-01-11T08:31:05.876Z,227
2018-01-11T08:32:11.346Z,222
2018-01-11T08:33:16.947Z,227
2018-01-11T08:34:22.712Z,237
2018-01-11T08:35:28.209Z,222
2018-01-11T08:36:33.461Z,237
2018-01-11T08:37:38.643Z,222
2018-01-11T08:38:44.128Z,222
2018-01-11T08:39:49.281Z,237
2018-01-11T08:40:54.465Z,222
2018-01-11T08:41:59.942Z,237
2018-01-11T08:43:05.418Z,222
2018-01-11T08:44:10.859Z,222
2018-01-11T08:45:16.366Z,222
2018-01-11T08:46:21.987Z,237
2018-01-11T08:47:27.175Z,222
2018-01-11T08:48:32.366Z,237
2018-01-11T08:49:37.561Z,222
2018-01-11T08:50:42.468Z,237
2018-01-11T08:51:47.631Z,222
2018-01-11T08:52:53.105Z,222
2018-01-11T08:53:58.299Z,237
2018-01-11T08:55:03.836Z,237
2018-01-11T08:56:09.317Z,222
2018-01-11T08:57:14.827Z,222
2018-01-11T08:58:20.000Z,222
2018-01-11T08:59:25.177Z,222
2018-01-11T09:00:30.747Z,222
2018-01-11T09:01:36.212Z,222
2018-01-11T09:02:41.690Z,227
2018-01-11T09:03:46.843Z,222
2018-01-11T09:04:52.525Z,222
2018-01-11T09:05:57.979Z,237
2018-01-11T09:07:03.083Z,222
2018-01-11T09:08:07.690Z,237
2018-01-11T09:09:12.572Z,237
2018-01-11T09:10:17.841Z,222
2018-01-11T09:11:23.016Z,222
2018-01-11T09:12:28.483Z,222
2018-01-11T09:13:33.588Z,237
2018-01-11T09:14:38.493Z,237
2018-01-11T09:15:45.041Z,222
2018-01-11T09:16:51.061Z,222
2018-01-11T09:17:56.450Z,222
2018-01-11T09:19:02.114Z,237
2018-01-11T09:20:07.004Z,237
2018-01-11T09:21:12.501Z,237
2018-01-11T09:22:18.263Z,237
2018-01-11T09:23:23.449Z,237
2018-01-11T09:24:28.697Z,237
2018-01-11T09:25:34.493Z,222
2018-01-11T09:26:39.977Z,237
2018-01-11T09:27:46.315Z,237
2018-01-11T09:28:51.792Z,222
2018-01-11T09:29:56.682Z,222
2018-01-11T09:31:02.424Z,222
2018-01-11T09:32:07.629Z,237
2018-01-11T09:33:13.026Z,237
2018-01-11T09:34:18.222Z,237
2018-01-11T09:35:23.694Z,237
2018-01-11T09:36:29.303Z,237
2018-01-11T09:37:34.255Z,252
2018-01-11T09:38:39.498Z,237
2018-01-11T09:39:45.217Z,267
2018-01-11T09:40:50.376Z,267
2018-01-11T09:41:55.553Z,252
2018-01-11T09:43:00.416Z,252
2018-01-11T09:44:05.622Z,267
2018-01-11T09:45:10.604Z,252
2018-01-11T09:46:16.542Z,267
2018-01-11T09:47:21.750Z,252
2018-01-11T09:48:27.247Z,252
2018-01-11T09:49:31.571Z,252
2018-01-11T09:50:36.482Z,252
2018-01-11T09:51:42.191Z,252
2018-01-11T09:52:47.355Z,267
2018-01-11T09:53:52.256Z,267
2018-01-11T09:54:57.686Z,267
2018-01-11T09:56:02.552Z,252
2018-01-11T09:57:08.022Z,247
2018-01-11T09:58:13.304Z,247
2018-01-11T09:59:18.968Z,262
2018-01-11T10:00:24.842Z,252
2018-01-11T10:01:30.055Z,262
2018-01-11T10:02:34.747Z,247
2018-01-11T10:03:40.043Z,262
2018-01-11T10:04:45.351Z,262
2018-01-11T10:05:50.544Z,262
2018-01-11T10:06:56.288Z,262
2018-01-11T10:08:01.829Z,247
2018-01-11T10:09:06.715Z,262
2018-01-11T10:10:12.435Z,277
2018-01-11T10:11:17.960Z,277
2018-01-11T10:12:23.464Z,292
2018-01-11T10:13:43.872Z,277
2018-01-11T10:14:48.744Z,292
2018-01-11T10:15:54.281Z,292
2018-01-11T10:17:00.163Z,277
2018-01-11T10:18:05.983Z,292
2018-01-11T10:19:11.522Z,292
2018-01-11T10:20:16.420Z,292
2018-01-11T10:21:21.055Z,292
2018-01-11T10:22:41.235Z,277
2018-01-11T10:23:46.444Z,292
2018-01-11T10:24:52.375Z,262
2018-01-11T10:25:57.557Z,262
2018-01-11T10:27:03.029Z,277
2018-01-11T10:28:07.893Z,262
2018-01-11T10:29:12.806Z,262
2018-01-11T10:30:18.281Z,262
2018-01-11T10:31:23.778Z,262
2018-01-11T10:32:29.281Z,262
2018-01-11T10:33:34.719Z,262
2018-01-11T10:34:39.362Z,277
2018-01-11T10:35:44.435Z,277
2018-01-11T10:36:50.169Z,277
2018-01-11T10:37:55.101Z,277
2018-01-11T10:39:00.032Z,262
2018-01-11T10:40:05.752Z,277
2018-01-11T10:41:10.898Z,277
2018-01-11T10:42:16.360Z,277
2018-01-11T10:43:22.178Z,292
2018-01-11T10:44:27.363Z,292
2018-01-11T10:45:32.324Z,277
2018-01-11T10:46:37.565Z,277
2018-01-11T10:47:42.930Z,292
2018-01-11T10:48:48.682Z,277
2018-01-11T10:49:53.881Z,292
2018-01-11T10:50:59.346Z,277
2018-01-11T10:52:05.153Z,292
2018-01-11T10:53:10.320Z,308
2018-01-11T10:54:15.519Z,287
2018-01-11T10:55:20.968Z,292
2018-01-11T10:56:26.140Z,287
2018-01-11T10:57:31.422Z,287
2018-01-11T10:58:36.592Z,287
2018-01-11T10:59:42.212Z,287
2018-01-11T11:00:47.782Z,287
2018-01-11T11:01:53.594Z,292
2018-01-11T11:02:58.929Z,287
2018-01-11T11:04:04.110Z,292
2018-01-11T11:05:09.331Z,287
2018-01-11T11:06:14.556Z,292
2018-01-11T11:07:20.317Z,308
2018-01-11T11:08:25.776Z,287
2018-01-11T11:09:31.700Z,292
2018-01-11T11:10:36.618Z,292
2018-01-11T11:11:41.843Z,287
2018-01-11T11:12:47.625Z,277
2018-01-11T11:13:53.091Z,292
2018-01-11T11:14:58.295Z,277
2018-01-11T11:16:04.101Z,292
2018-01-11T11:17:08.991Z,292
2018-01-11T11:18:14.356Z,277
2018-01-11T11:19:19.926Z,277
2018-01-11T11:20:25.544Z,277
2018-01-11T11:21:30.605Z,262
2018-01-11T11:22:35.781Z,277
2018-01-11T11:23:41.438Z,277
2018-01-11T11:24:47.243Z,292
2018-01-11T11:25:52.923Z,277
2018-01-11T11:26:58.494Z,308
2018-01-11T11:28:04.013Z,292
2018-01-11T11:29:09.174Z,292
2018-01-11T11:30:14.377Z,292
2018-01-11T11:31:19.935Z,287
2018-01-11T11:32:24.552Z,292
2018-01-11T11:33:29.822Z,292
2018-01-11T11:34:35.013Z,287
2018-01-11T11:35:40.474Z,287
2018-01-11T11:36:45.958Z,302
2018-01-11T11:37:50.865Z,287
2018-01-11T11:38:55.972Z,302
2018-01-11T11:40:01.685Z,302
2018-01-11T11:41:06.569Z,317
2018-01-11T11:42:11.761Z,317
2018-01-11T11:43:17.229Z,333
2018-01-11T11:44:22.719Z,302
2018-01-11T11:45:27.628Z,302
2018-01-11T11:46:32.816Z,302
2018-01-11T11:47:38.021Z,302
2018-01-11T11:48:43.289Z,302
2018-01-11T11:49:48.758Z,287
2018-01-11T11:50:54.396Z,272
2018-01-11T11:51:59.634Z,287
2018-01-11T11:53:04.541Z,308
2018-01-11T11:54:10.015Z,292
2018-01-11T11:55:16.280Z,277
2018-01-11T11:56:21.541Z,277
2018-01-11T11:57:27.566Z,277
2018-01-11T11:58:32.458Z,292
2018-01-11T11:59:38.139Z,277
2018-01-11T12:00:43.169Z,292
2018-01-11T12:01:48.843Z,262
2018-01-11T12:02:54.234Z,277
2018-01-11T12:03:59.801Z,277
2018-01-11T12:05:05.275Z,287
2018-01-11T12:06:10.125Z,302
2018-01-11T12:07:15.932Z,287
2018-01-11T12:08:21.135Z,287
2018-01-11T12:09:27.056Z,302
2018-01-11T12:10:32.622Z,302
2018-01-11T12:11:38.121Z,287
2018-01-11T12:12:43.371Z,272
2018-01-11T12:13:48.837Z,302
2018-01-11T12:14:55.095Z,302
2018-01-11T12:16:00.596Z,287
2018-01-11T12:17:05.231Z,302
2018-01-11T12:18:10.112Z,317
2018-01-11T12:19:15.789Z,333
2018-01-11T12:20:20.957Z,317
2018-01-11T12:21:26.660Z,312
2018-01-11T12:22:31.856Z,312
2018-01-11T12:23:37.035Z,327
2018-01-11T12:24:42.623Z,317
2018-01-11T12:25:48.302Z,312
2018-01-11T12:26:53.785Z,317
2018-01-11T12:27:59.109Z,317
2018-01-11T12:29:04.467Z,317
2018-01-11T12:30:09.937Z,312
2018-01-11T12:31:15.591Z,317
2018-01-11T12:32:21.339Z,333
2018-01-11T12:33:27.679Z,317
2018-01-11T12:34:33.142Z,317
2018-01-11T12:35:38.063Z,317
2018-01-11T12:36:43.972Z,302
2018-01-11T12:37:49.450Z,287
2018-01-11T12:38:54.683Z,287
2018-01-11T12:40:00.520Z,302
2018-01-11T12:41:05.206Z,287
2018-01-11T12:42:10.315Z,287
2018-01-11T12:43:15.748Z,302
2018-01-11T12:44:20.952Z,302
2018-01-11T12:45:26.832Z,287
2018-01-11T12:46:32.055Z,302
2018-01-11T12:47:37.582Z,302
2018-01-11T12:48:43.265Z,302
2018-01-11T12:49:48.729Z,302
2018-01-11T12:50:53.675Z,287
2018-01-11T12:51:59.620Z,287
2018-01-11T12:53:05.316Z,302
2018-01-11T12:54:10.805Z,302
2018-01-11T12:55:16.802Z,302
2018-01-11T12:56:22.009Z,272
2018-01-11T12:57:27.771Z,287
2018-01-11T12:58:33.128Z,292
2018-01-11T12:59:38.039Z,292
2018-01-11T13:00:43.889Z,277
2018-01-11T13:01:49.121Z,277
2018-01-11T13:02:54.612Z,277
2018-01-11T13:03:59.918Z,262
2018-01-11T13:05:05.093Z,262
2018-01-11T13:06:10.683Z,262
2018-01-11T13:07:16.416Z,262
2018-01-11T13:08:21.311Z,262
2018-01-11T13:09:27.540Z,262
2018-01-11T13:10:32.170Z,277
2018-01-11T13:11:37.358Z,277
2018-01-11T13:12:43.175Z,277
2018-01-11T13:13:48.915Z,277
2018-01-11T13:14:53.530Z,292
2018-01-11T13:15:59.400Z,292
2018-01-11T13:17:04.628Z,292
2018-01-11T13:18:10.117Z,272
2018-01-11T13:19:15.625Z,277
2018-01-11T13:20:20.830Z,272
2018-01-11T13:21:26.607Z,277
2018-01-11T13:22:31.818Z,272
2018-01-11T13:23:37.307Z,272
2018-01-11T13:24:42.464Z,287
2018-01-11T13:25:47.521Z,272
2018-01-11T13:26:52.983Z,272
2018-01-11T13:27:58.820Z,272
2018-01-11T13:29:03.979Z,287
2018-01-11T13:30:08.877Z,272
2018-01-11T13:31:13.743Z,292
2018-01-11T13:32:19.143Z,272
2018-01-11T13:33:39.277Z,262
2018-01-11T13:34:44.149Z,222
2018-01-11T13:35:49.637Z,232
2018-01-11T13:36:55.151Z,247
2018-01-11T13:38:00.829Z,252
2018-01-11T13:39:06.302Z,237
2018-01-11T13:40:12.130Z,237
2018-01-11T13:41:17.326Z,237
2018-01-11T13:42:23.132Z,237
2018-01-11T13:43:43.902Z,237
2018-01-11T13:44:49.386Z,222
2018-01-11T13:45:54.843Z,207
2018-01-11T13:47:00.062Z,222
2018-01-11T13:48:05.463Z,222
2018-01-11T13:49:10.712Z,227
2018-01-11T13:50:16.168Z,227
2018-01-11T13:51:21.319Z,227
